createdAt,value
2023-03-03T00:02:07.258Z,30.48
2023-03-03T00:04:35.283Z,30.58
2023-03-03T00:07:03.526Z,30.43
2023-03-03T00:09:31.437Z,30.58
2023-03-03T00:12:00.176Z,29.82
2023-03-03T00:14:32.619Z,30.39
2023-03-03T00:17:02.500Z,29.66
2023-03-03T00:19:30.818Z,29.75
2023-03-03T00:21:59.374Z,29.83
2023-03-03T00:24:37.873Z,29.95
2023-03-03T00:27:32.339Z,29.66
2023-03-03T00:30:01.286Z,29.93
2023-03-03T00:32:51.321Z,29.86
2023-03-03T00:35:28.240Z,29.93
2023-03-03T00:38:11.479Z,30.00
2023-03-03T00:40:39.914Z,30.65
2023-03-03T00:43:35.527Z,30.76
2023-03-03T00:46:03.725Z,30.78
2023-03-03T00:48:37.879Z,30.77
2023-03-03T00:51:38.264Z,31.48
2023-03-03T00:54:06.275Z,31.00
2023-03-03T00:56:34.744Z,31.68
2023-03-03T00:59:03.117Z,31.76
2023-03-03T01:01:31.206Z,31.44
2023-03-03T01:03:59.491Z,31.37
2023-03-03T01:06:28.418Z,31.63
2023-03-03T01:08:58.177Z,31.62
2023-03-03T01:11:26.952Z,31.78
2023-03-03T01:13:55.684Z,32.00
2023-03-03T01:16:24.168Z,31.72
2023-03-03T01:18:52.439Z,31.89
2023-03-03T01:21:20.394Z,31.62
2023-03-03T01:23:48.811Z,31.83
2023-03-03T01:26:16.944Z,32.16
2023-03-03T01:28:45.128Z,32.22
2023-03-03T01:31:14.090Z,31.48
2023-03-03T01:33:42.576Z,31.78
2023-03-03T01:36:10.515Z,31.82
2023-03-03T01:38:38.518Z,31.50
2023-03-03T01:41:07.211Z,31.98
2023-03-03T01:43:35.044Z,31.83
2023-03-03T01:46:03.346Z,31.25
2023-03-03T01:48:44.050Z,31.56
2023-03-03T01:51:22.036Z,31.42
2023-03-03T01:53:58.494Z,31.33
2023-03-03T01:56:27.350Z,31.54
2023-03-03T01:59:02.716Z,31.14
2023-03-03T02:01:31.413Z,31.23
2023-03-03T02:04:00.113Z,31.20
2023-03-03T02:06:31.572Z,31.36
2023-03-03T02:09:30.359Z,31.42
2023-03-03T02:12:01.336Z,30.67
2023-03-03T02:14:29.234Z,30.56
2023-03-03T02:16:57.207Z,31.15
2023-03-03T02:19:36.632Z,30.10
2023-03-03T02:22:04.749Z,30.16
2023-03-03T02:24:54.441Z,29.85
2023-03-03T02:27:22.350Z,29.67
2023-03-03T02:29:50.448Z,30.69
2023-03-03T02:32:18.657Z,29.87
2023-03-03T02:34:51.894Z,29.09
2023-03-03T02:37:20.648Z,28.90
2023-03-03T02:39:48.497Z,28.52
2023-03-03T02:42:18.364Z,28.29
2023-03-03T02:44:51.309Z,27.99
2023-03-03T02:47:19.280Z,28.13
2023-03-03T02:49:47.072Z,28.10
2023-03-03T02:52:15.583Z,27.79
2023-03-03T02:54:46.337Z,27.48
2023-03-03T02:57:14.426Z,27.24
2023-03-03T02:59:42.904Z,27.02
2023-03-03T03:02:17.384Z,26.60
2023-03-03T03:04:46.393Z,26.83
2023-03-03T03:07:18.609Z,26.71
2023-03-03T03:09:47.577Z,26.14
2023-03-03T03:12:16.412Z,26.00
2023-03-03T03:14:44.820Z,26.36
2023-03-03T03:17:13.204Z,26.51
2023-03-03T03:19:41.896Z,25.30
2023-03-03T03:22:09.771Z,25.90
2023-03-03T03:24:37.932Z,25.56
2023-03-03T03:27:09.284Z,25.73
2023-03-03T03:29:37.736Z,24.92
2023-03-03T03:32:06.836Z,25.10
2023-03-03T03:34:35.539Z,24.74
2023-03-03T03:37:04.834Z,25.31
2023-03-03T03:39:32.923Z,24.72
2023-03-03T03:42:00.859Z,25.19
2023-03-03T03:44:29.065Z,24.82
2023-03-03T03:46:57.289Z,24.44
2023-03-03T03:49:25.910Z,24.76
2023-03-03T03:51:56.308Z,25.10
2023-03-03T03:54:27.869Z,24.57
2023-03-03T03:56:56.096Z,25.02
2023-03-03T03:59:25.003Z,25.42
2023-03-03T04:01:53.421Z,25.26
2023-03-03T04:04:23.302Z,25.80
2023-03-03T04:06:51.394Z,25.94
2023-03-03T04:09:22.935Z,26.03
2023-03-03T04:11:51.161Z,25.76
2023-03-03T04:14:19.926Z,24.78
2023-03-03T04:16:47.920Z,24.68
2023-03-03T04:19:15.666Z,24.42
2023-03-03T04:21:44.611Z,24.42
2023-03-03T04:24:12.581Z,24.58
2023-03-03T04:26:41.087Z,24.70
2023-03-03T04:29:11.013Z,25.03
2023-03-03T04:31:41.160Z,25.06
2023-03-03T04:34:10.875Z,24.88
2023-03-03T04:36:39.567Z,24.51
2023-03-03T04:39:07.735Z,23.77
2023-03-03T04:41:36.115Z,24.43
2023-03-03T04:44:04.874Z,24.04
2023-03-03T04:46:32.860Z,24.04
2023-03-03T04:49:02.036Z,24.24
2023-03-03T04:51:30.232Z,23.87
2023-03-03T04:53:58.507Z,23.89
2023-03-03T04:56:26.834Z,24.35
2023-03-03T04:58:55.191Z,24.19
2023-03-03T05:01:23.623Z,24.21
2023-03-03T05:03:51.448Z,24.40
2023-03-03T05:06:19.850Z,24.19
2023-03-03T05:08:47.673Z,24.11
2023-03-03T05:11:15.930Z,23.96
2023-03-03T05:13:43.849Z,24.58
2023-03-03T05:16:11.835Z,23.53
2023-03-03T05:18:39.968Z,23.65
2023-03-03T05:21:08.012Z,23.32
2023-03-03T05:23:36.636Z,23.17
2023-03-03T05:26:04.816Z,22.52
2023-03-03T05:28:33.913Z,23.05
2023-03-03T05:31:02.025Z,23.47
2023-03-03T05:33:30.607Z,22.94
2023-03-03T05:35:58.692Z,23.40
2023-03-03T05:38:26.981Z,22.15
2023-03-03T05:40:55.675Z,22.35
2023-03-03T05:43:23.459Z,22.55
2023-03-03T05:46:00.761Z,21.81
2023-03-03T05:48:29.068Z,21.79
2023-03-03T05:51:00.619Z,21.77
2023-03-03T05:53:28.986Z,21.59
2023-03-03T05:55:57.044Z,21.74
2023-03-03T05:58:25.394Z,22.16
2023-03-03T06:00:53.430Z,21.74
2023-03-03T06:03:21.545Z,21.83
2023-03-03T06:05:49.658Z,21.46
2023-03-03T06:08:17.866Z,20.81
2023-03-03T06:10:45.794Z,21.10
2023-03-03T06:13:15.712Z,20.92
2023-03-03T06:15:43.764Z,21.25
2023-03-03T06:18:12.175Z,20.94
2023-03-03T06:20:40.080Z,20.85
2023-03-03T06:23:08.658Z,20.70
2023-03-03T06:25:37.000Z,20.66
2023-03-03T06:28:05.149Z,21.21
2023-03-03T06:30:33.000Z,21.47
2023-03-03T06:33:01.250Z,21.73
2023-03-03T06:35:29.424Z,22.28
2023-03-03T06:37:57.571Z,22.34
2023-03-03T06:40:25.265Z,21.45
2023-03-03T06:42:53.457Z,21.45
2023-03-03T06:45:21.788Z,21.35
2023-03-03T06:47:51.574Z,21.38
2023-03-03T06:50:20.305Z,23.79
2023-03-03T06:52:48.867Z,25.05
2023-03-03T06:55:22.140Z,26.50
2023-03-03T06:57:50.038Z,26.84
2023-03-03T07:00:25.077Z,26.49
2023-03-03T07:03:15.018Z,26.69
2023-03-03T07:05:43.007Z,26.76
2023-03-03T07:08:19.184Z,26.78
2023-03-03T07:10:47.378Z,27.29
2023-03-03T07:13:26.085Z,27.79
2023-03-03T07:15:55.201Z,26.98
2023-03-03T07:18:53.558Z,26.93
2023-03-03T07:21:35.856Z,25.76
2023-03-03T07:24:28.418Z,26.32
2023-03-03T07:27:24.928Z,26.83
2023-03-03T07:29:54.580Z,26.04
2023-03-03T07:32:47.657Z,27.24
2023-03-03T07:35:38.263Z,26.81
2023-03-03T07:38:31.068Z,26.84
2023-03-03T07:41:01.421Z,27.71
2023-03-03T07:43:38.590Z,27.52
2023-03-03T07:46:10.571Z,26.84
2023-03-03T07:48:40.634Z,28.13
2023-03-03T07:51:42.341Z,26.93
2023-03-03T07:54:36.171Z,27.12
2023-03-03T07:57:15.823Z,27.70
2023-03-03T07:59:54.962Z,27.86
2023-03-03T08:02:29.044Z,28.20
2023-03-03T08:04:57.451Z,27.19
2023-03-03T08:07:25.537Z,27.76
2023-03-03T08:10:01.090Z,27.87
2023-03-03T08:12:42.368Z,27.83
2023-03-03T08:15:22.383Z,27.66
2023-03-03T08:17:51.120Z,27.51
2023-03-03T08:20:37.603Z,27.07
2023-03-03T08:23:05.749Z,27.55
2023-03-03T08:25:33.531Z,27.27
2023-03-03T08:28:01.577Z,27.23
2023-03-03T08:30:29.451Z,27.28
2023-03-03T08:32:57.587Z,26.77
2023-03-03T08:35:25.426Z,26.44
2023-03-03T08:37:53.490Z,25.92
2023-03-03T08:40:21.536Z,24.08
2023-03-03T08:42:49.608Z,24.38
2023-03-03T08:45:18.309Z,24.56
2023-03-03T08:47:46.448Z,23.85
2023-03-03T08:50:15.378Z,24.90
2023-03-03T08:52:43.387Z,24.37
2023-03-03T08:55:12.029Z,24.75
2023-03-03T08:57:40.142Z,24.65
2023-03-03T09:00:10.318Z,25.58
2023-03-03T09:02:38.468Z,26.62
2023-03-03T09:05:07.334Z,25.35
2023-03-03T09:07:35.191Z,24.78
2023-03-03T09:10:03.416Z,25.60
2023-03-03T09:12:37.097Z,24.54
2023-03-03T09:15:35.026Z,24.62
2023-03-03T09:18:23.864Z,24.37
2023-03-03T09:20:53.056Z,23.71
2023-03-03T09:23:39.621Z,24.40
2023-03-03T09:26:32.605Z,23.56
2023-03-03T09:29:16.254Z,24.33
2023-03-03T09:31:49.395Z,23.25
2023-03-03T09:34:20.961Z,23.72
2023-03-03T09:36:50.018Z,26.20
2023-03-03T09:39:28.466Z,27.37
2023-03-03T09:42:12.421Z,27.47
2023-03-03T09:45:02.318Z,28.60
2023-03-03T09:47:58.418Z,27.49
2023-03-03T09:50:29.389Z,27.21
2023-03-03T09:53:07.730Z,27.83
2023-03-03T09:55:40.952Z,28.21
2023-03-03T09:58:24.896Z,27.75
2023-03-03T10:00:56.132Z,28.32
2023-03-03T10:03:48.484Z,28.89
2023-03-03T10:06:34.134Z,29.28
2023-03-03T10:09:20.894Z,29.64
2023-03-03T10:12:14.977Z,29.52
2023-03-03T10:15:14.582Z,30.66
2023-03-03T10:17:49.553Z,29.57
2023-03-03T10:20:40.408Z,29.75
2023-03-03T10:23:53.741Z,30.09
2023-03-03T10:27:01.341Z,29.76
2023-03-03T10:29:45.221Z,29.88
2023-03-03T10:33:10.026Z,29.79
2023-03-03T10:36:07.128Z,28.06
2023-03-03T10:39:26.404Z,28.54
2023-03-03T10:42:15.788Z,28.54
2023-03-03T10:44:43.977Z,28.90
2023-03-03T10:47:36.229Z,29.36
2023-03-03T10:50:11.289Z,28.59
2023-03-03T10:52:59.067Z,28.69
2023-03-03T10:55:39.650Z,29.09
2023-03-03T10:58:27.603Z,28.68
2023-03-03T11:01:02.547Z,29.62
2023-03-03T11:03:37.176Z,30.39
2023-03-03T11:06:23.164Z,30.45
2023-03-03T11:09:04.112Z,31.13
2023-03-03T11:11:46.779Z,31.09
2023-03-03T11:14:17.273Z,31.45
2023-03-03T11:16:59.769Z,31.85
2023-03-03T11:19:42.005Z,32.55
2023-03-03T11:22:12.749Z,33.85
2023-03-03T11:25:02.374Z,33.11
2023-03-03T11:27:56.650Z,32.90
2023-03-03T11:30:30.564Z,32.85
2023-03-03T11:33:13.251Z,32.64
2023-03-03T11:35:50.346Z,32.68
2023-03-03T11:38:39.781Z,33.14
2023-03-03T11:41:13.816Z,33.42
2023-03-03T11:43:50.634Z,33.94
2023-03-03T11:46:47.808Z,33.99
2023-03-03T11:49:23.001Z,33.99
2023-03-03T11:51:53.716Z,33.99
2023-03-03T11:54:54.158Z,33.82
2023-03-03T11:57:23.881Z,34.59
2023-03-03T12:00:09.912Z,34.65
2023-03-03T12:02:59.414Z,33.89
2023-03-03T12:05:48.196Z,34.44
2023-03-03T12:08:34.585Z,34.31
2023-03-03T12:11:28.478Z,35.18
2023-03-03T12:14:38.285Z,34.99
2023-03-03T12:17:18.352Z,35.03
2023-03-03T12:20:17.891Z,34.36
2023-03-03T12:23:06.938Z,33.89
2023-03-03T12:25:44.237Z,34.07
2023-03-03T12:28:29.122Z,34.01
2023-03-03T12:31:24.503Z,33.71
2023-03-03T12:33:54.310Z,33.68
2023-03-03T12:36:32.650Z,33.91
2023-03-03T12:39:13.551Z,34.26
2023-03-03T12:41:56.933Z,33.74
2023-03-03T12:44:26.781Z,33.95
2023-03-03T12:47:02.364Z,33.59
2023-03-03T12:49:48.072Z,33.71
2023-03-03T12:52:46.885Z,33.40
2023-03-03T12:55:35.834Z,33.34
2023-03-03T12:58:04.089Z,33.50
2023-03-03T13:00:40.613Z,32.93
2023-03-03T13:03:55.790Z,33.63
2023-03-03T13:06:31.303Z,34.17
2023-03-03T13:09:36.657Z,33.42
2023-03-03T13:12:23.460Z,34.14
2023-03-03T13:15:00.862Z,34.23
2023-03-03T13:17:33.212Z,34.15
2023-03-03T13:20:03.632Z,34.13
2023-03-03T13:22:46.271Z,34.12
2023-03-03T13:25:34.546Z,34.38
2023-03-03T13:28:13.266Z,34.13
2023-03-03T13:30:55.375Z,34.34
2023-03-03T13:33:34.888Z,34.82
2023-03-03T13:36:12.641Z,34.70
2023-03-03T13:38:50.467Z,35.00
2023-03-03T13:41:51.312Z,35.03
2023-03-03T13:44:28.684Z,35.05
2023-03-03T13:47:02.442Z,35.21
2023-03-03T13:49:52.614Z,35.50
2023-03-03T13:52:25.250Z,35.66
2023-03-03T13:55:31.781Z,36.24
2023-03-03T13:58:12.706Z,36.30
2023-03-03T14:00:59.956Z,36.93
2023-03-03T14:03:52.826Z,36.68
2023-03-03T14:06:23.820Z,37.52
2023-03-03T14:09:03.688Z,37.92
2023-03-03T14:11:50.379Z,38.74
2023-03-03T14:14:25.068Z,38.60
2023-03-03T14:16:53.655Z,38.83
2023-03-03T14:19:40.828Z,39.06
2023-03-03T14:22:24.366Z,39.79
2023-03-03T14:25:09.235Z,39.75
2023-03-03T14:28:05.764Z,40.03
2023-03-03T14:30:37.872Z,40.49
2023-03-03T14:33:08.740Z,40.69
2023-03-03T14:35:41.793Z,40.68
2023-03-03T14:38:09.780Z,41.13
2023-03-03T14:40:44.834Z,40.74
2023-03-03T14:43:27.943Z,41.57
2023-03-03T14:45:56.864Z,41.20
2023-03-03T14:48:26.720Z,41.25
2023-03-03T14:50:59.111Z,41.93
2023-03-03T14:53:40.193Z,41.58
2023-03-03T14:56:23.005Z,41.29
2023-03-03T14:58:54.957Z,41.75
2023-03-03T15:01:35.540Z,42.14
2023-03-03T15:04:16.072Z,41.74
2023-03-03T15:06:49.111Z,41.95
2023-03-03T15:09:43.724Z,41.45
2023-03-03T15:12:37.604Z,40.96
2023-03-03T15:15:14.707Z,40.94
2023-03-03T15:17:50.555Z,41.38
2023-03-03T15:20:41.404Z,40.96
2023-03-03T15:23:32.035Z,41.31
2023-03-03T15:26:05.447Z,41.40
2023-03-03T15:29:03.056Z,41.75
2023-03-03T15:31:49.961Z,41.63
2023-03-03T15:34:33.473Z,42.37
2023-03-03T15:37:10.525Z,42.27
2023-03-03T15:40:03.299Z,43.62
2023-03-03T15:42:38.592Z,43.93
2023-03-03T15:45:34.156Z,44.01
2023-03-03T15:48:20.451Z,43.99
2023-03-03T15:51:07.227Z,43.73
2023-03-03T15:53:58.605Z,44.16
2023-03-03T15:56:35.591Z,45.05
2023-03-03T15:59:37.874Z,45.19
2023-03-03T16:02:22.772Z,45.55
2023-03-03T16:05:15.989Z,45.85
2023-03-03T16:07:53.640Z,45.78
2023-03-03T16:10:37.672Z,46.52
2023-03-03T16:13:28.885Z,45.76
2023-03-03T16:16:18.661Z,45.81
2023-03-03T16:19:08.309Z,45.28
2023-03-03T16:21:54.801Z,45.17
2023-03-03T16:24:47.918Z,44.83
2023-03-03T16:27:31.301Z,45.33
2023-03-03T16:30:23.663Z,45.88
2023-03-03T16:32:53.694Z,46.34
2023-03-03T16:35:26.790Z,46.60
2023-03-03T16:37:57.397Z,43.53
2023-03-03T16:40:58.808Z,43.77
2023-03-03T16:43:44.890Z,44.80
2023-03-03T16:46:36.607Z,45.04
2023-03-03T16:49:22.464Z,46.24
2023-03-03T16:51:54.219Z,46.42
2023-03-03T16:54:37.426Z,45.90
2023-03-03T16:57:34.234Z,46.45
2023-03-03T17:00:22.291Z,46.08
2023-03-03T17:02:52.977Z,45.95
2023-03-03T17:06:01.067Z,46.52
2023-03-03T17:09:06.583Z,46.38
2023-03-03T17:11:38.108Z,47.02
2023-03-03T17:14:25.284Z,46.91
2023-03-03T17:16:57.916Z,46.46
2023-03-03T17:19:38.415Z,47.04
2023-03-03T17:22:41.095Z,46.86
2023-03-03T17:25:12.885Z,47.86
2023-03-03T17:27:59.809Z,47.46
2023-03-03T17:30:51.262Z,47.99
2023-03-03T17:33:28.324Z,48.28
2023-03-03T17:36:18.434Z,48.44
2023-03-03T17:38:46.328Z,48.72
2023-03-03T17:41:32.882Z,48.53
2023-03-03T17:44:14.650Z,49.24
2023-03-03T17:46:51.975Z,49.40
2023-03-03T17:49:43.334Z,49.31
2023-03-03T17:52:11.200Z,49.12
2023-03-03T17:54:59.582Z,49.54
2023-03-03T17:57:58.960Z,48.88
2023-03-03T18:00:52.698Z,48.91
2023-03-03T18:03:38.973Z,49.18
2023-03-03T18:06:29.784Z,49.48
2023-03-03T18:09:35.609Z,49.21
2023-03-03T18:12:10.934Z,49.19
2023-03-03T18:15:00.452Z,49.68
2023-03-03T18:17:31.524Z,50.75
2023-03-03T18:20:11.370Z,50.71
2023-03-03T18:22:46.677Z,50.99
2023-03-03T18:25:16.331Z,51.22
2023-03-03T18:27:49.062Z,51.93
2023-03-03T18:30:22.665Z,52.01
2023-03-03T18:32:56.706Z,52.22
2023-03-03T18:35:49.656Z,52.41
2023-03-03T18:38:25.905Z,52.89
2023-03-03T18:41:12.978Z,53.16
2023-03-03T18:43:44.515Z,53.46
2023-03-03T18:46:22.029Z,53.98
2023-03-03T18:48:55.222Z,53.66
2023-03-03T18:51:36.236Z,53.65
2023-03-03T18:54:13.151Z,53.50
2023-03-03T18:57:05.770Z,54.61
2023-03-03T18:59:37.004Z,54.03
2023-03-03T19:02:14.192Z,53.97
2023-03-03T19:04:55.975Z,54.06
2023-03-03T19:07:28.503Z,54.12
2023-03-03T19:10:04.486Z,53.69
2023-03-03T19:12:46.981Z,52.50
2023-03-03T19:15:35.274Z,52.42
2023-03-03T19:18:14.856Z,52.52
2023-03-03T19:20:45.122Z,52.31
2023-03-03T19:23:17.336Z,52.03
2023-03-03T19:25:45.242Z,51.75
2023-03-03T19:28:16.093Z,51.99
2023-03-03T19:30:59.574Z,51.12
2023-03-03T19:33:43.835Z,51.26
2023-03-03T19:36:26.153Z,51.47
2023-03-03T19:39:09.354Z,51.01
2023-03-03T19:41:59.879Z,51.69
2023-03-03T19:45:01.253Z,51.65
2023-03-03T19:47:37.313Z,51.72
2023-03-03T19:50:23.636Z,52.08
2023-03-03T19:53:00.680Z,52.04
2023-03-03T19:55:36.229Z,51.21
2023-03-03T19:58:35.089Z,49.94
2023-03-03T20:01:54.291Z,48.98
2023-03-03T20:04:38.634Z,49.16
2023-03-03T20:07:16.584Z,49.21
2023-03-03T20:09:53.985Z,49.75
2023-03-03T20:12:40.342Z,49.14
2023-03-03T20:15:14.402Z,49.68
2023-03-03T20:18:11.590Z,50.03
2023-03-03T20:20:51.639Z,48.85
2023-03-03T20:24:21.058Z,46.94
2023-03-03T20:26:57.512Z,47.13
2023-03-03T20:29:53.846Z,47.79
2023-03-03T20:32:35.919Z,48.07
2023-03-03T20:35:21.528Z,47.49
2023-03-03T20:38:15.133Z,47.16
2023-03-03T20:40:51.551Z,46.69
2023-03-03T20:43:34.450Z,46.82
2023-03-03T20:46:08.710Z,46.93
2023-03-03T20:48:59.818Z,45.82
2023-03-03T20:51:33.677Z,44.64
2023-03-03T20:54:39.471Z,44.44
2023-03-03T20:57:34.532Z,45.65
2023-03-03T21:00:08.449Z,45.94
2023-03-03T21:02:41.949Z,46.73
2023-03-03T21:05:23.103Z,46.74
2023-03-03T21:07:58.178Z,45.99
2023-03-03T21:10:31.078Z,46.24
2023-03-03T21:13:00.209Z,45.97
2023-03-03T21:15:30.430Z,45.82
2023-03-03T21:17:59.346Z,45.20
2023-03-03T21:20:32.312Z,45.30
2023-03-03T21:23:01.162Z,45.79
2023-03-03T21:25:42.027Z,46.22
2023-03-03T21:28:23.543Z,46.79
2023-03-03T21:31:09.853Z,47.55
2023-03-03T21:33:43.908Z,48.20
2023-03-03T21:36:13.796Z,48.39
2023-03-03T21:38:42.152Z,48.61
2023-03-03T21:41:10.185Z,48.74
2023-03-03T21:43:48.741Z,48.77
2023-03-03T21:46:24.203Z,48.96
2023-03-03T21:48:52.412Z,49.34
2023-03-03T21:51:21.837Z,49.26
2023-03-03T21:53:49.853Z,48.74
2023-03-03T21:56:17.740Z,48.56
2023-03-03T21:58:45.430Z,48.70
2023-03-03T22:01:13.903Z,48.04
2023-03-03T22:03:44.521Z,47.23
2023-03-03T22:06:12.623Z,46.73
2023-03-03T22:08:40.702Z,47.28
2023-03-03T22:11:08.436Z,47.29
2023-03-03T22:13:36.722Z,47.62
2023-03-03T22:16:04.831Z,47.73
2023-03-03T22:18:32.911Z,48.39
2023-03-03T22:21:00.670Z,48.67
2023-03-03T22:23:28.569Z,49.07
2023-03-03T22:25:56.368Z,49.27
2023-03-03T22:28:24.848Z,49.51
2023-03-03T22:30:52.726Z,49.23
2023-03-03T22:33:20.890Z,49.18
2023-03-03T22:35:49.033Z,48.99
2023-03-03T22:38:17.265Z,48.85
2023-03-03T22:40:45.225Z,48.97
2023-03-03T22:43:14.987Z,47.88
2023-03-03T22:45:43.130Z,46.66
2023-03-03T22:48:11.984Z,45.58
2023-03-03T22:50:41.063Z,45.58
2023-03-03T22:53:08.961Z,45.38
2023-03-03T22:55:37.773Z,45.45
2023-03-03T22:58:07.489Z,45.34
2023-03-03T23:00:40.606Z,45.69
2023-03-03T23:03:10.098Z,45.62
2023-03-03T23:05:41.212Z,45.78
2023-03-03T23:08:11.967Z,46.17
2023-03-03T23:10:40.480Z,46.22
2023-03-03T23:13:09.797Z,46.64
2023-03-03T23:15:38.035Z,46.49
2023-03-03T23:18:06.279Z,46.49
2023-03-03T23:20:34.675Z,46.43
2023-03-03T23:23:03.139Z,46.42
2023-03-03T23:25:31.301Z,46.33
2023-03-03T23:28:00.118Z,45.99
2023-03-03T23:30:28.283Z,45.86
2023-03-03T23:32:56.657Z,46.01
2023-03-03T23:35:25.057Z,45.61
2023-03-03T23:37:53.594Z,45.33
2023-03-03T23:40:21.902Z,45.22
2023-03-03T23:42:50.532Z,45.64
2023-03-03T23:45:18.703Z,45.46
2023-03-03T23:47:51.445Z,45.61
2023-03-03T23:50:20.145Z,45.64
2023-03-03T23:52:48.515Z,45.51
2023-03-03T23:55:16.904Z,45.63
2023-03-03T23:57:44.915Z,45.18
